OOCL Oakland — 3EKJ6 — position and weather

sailwx.info

Track history (hours):
 
Tides and Currents Weather Stations Pressure Air Temp Water Temp Dewpoint Dewpoint Depression Visibility Wind Speed Wind Dir Waves Ship Positions

OOCL Oakland

Last reported at 2018-Feb-18 20:41 UTC. Time now 2018-Feb-19 14:27 UTC.
Position N 01°15' E 104°05'.

Length 280 m; draft 11.6 m.

Type: Ship. MMSI: 372703235.

Date/timePositionNaut miles runAvg speedWind from/ knotsBaromVisibWave heightAir tempDewpointWater temp
2018-Feb-18 20:41N 01°15' E 104°05'317.8
2018-Feb-18 20:30N 01°15' E 104°02'917.3
2018-Feb-18 19:59N 01°12' E 103°53'816.4
2018-Feb-18 19:30N 01°08' E 103°46'1113.9
2018-Feb-18 18:42N 01°03' E 103°36'416.9
2018-Feb-18 18:27N 01°06' E 103°33'814.1
2018-Feb-18 17:54N 01°09' E 103°26'5 0.1
2018-Feb-17 04:24N 01°13' E 103°29'717.8
2018-Feb-17 04:00N 01°12' E 103°35'4 8.1
2018-Feb-17 03:30N 01°12' E 103°40'4 7.9
2018-Feb-17 02:59N 01°15' E 103°43'4 7.6
2018-Feb-17 02:30N 01°16' E 103°46'1 1.5
2018-Feb-17 02:00N 01°16' E 103°47'0 0.5
2018-Feb-17 01:25N 01°16' E 103°47'0 0.0
2018-Feb-17 00:55N 01°16' E 103°47'0 0.0
2018-Feb-17 00:28N 01°16' E 103°47'0 0.0
2018-Feb-16 23:55N 01°16' E 103°47'0 0.0
2018-Feb-16 23:28N 01°16' E 103°47'0 0.0
2018-Feb-16 22:55N 01°16' E 103°47'0 0.0
2018-Feb-16 22:25N 01°16' E 103°47'0 0.0
2018-Feb-16 21:55N 01°16' E 103°47'0 0.0
2018-Feb-16 21:25N 01°16' E 103°47'0 0.0
2018-Feb-16 20:55N 01°16' E 103°47'0 0.0
2018-Feb-16 20:28N 01°16' E 103°47'0 0.0
2018-Feb-16 19:58N 01°16' E 103°47'0 0.0
2018-Feb-16 19:25N 01°16' E 103°47'0 0.0
2018-Feb-16 18:55N 01°16' E 103°47'0 0.0
2018-Feb-16 18:25N 01°16' E 103°47'0 0.0
2018-Feb-16 17:55N 01°16' E 103°47'0 0.0
2018-Feb-16 17:19N 01°16' E 103°47'0 0.0
2018-Feb-16 16:55N 01°16' E 103°47'0 0.0
2018-Feb-16 15:58N 01°16' E 103°47'0 0.0
2018-Feb-16 15:25N 01°16' E 103°47'0 0.0
2018-Feb-16 14:55N 01°16' E 103°47'0 0.1
2018-Feb-16 14:25N 01°16' E 103°47'0 0.1
2018-Feb-16 13:55N 01°16' E 103°47'0 0.0
2018-Feb-16 13:25N 01°16' E 103°47'0 0.0
2018-Feb-16 12:49N 01°16' E 103°47'0 0.0
2018-Feb-16 12:25N 01°16' E 103°47'0 0.0
2018-Feb-16 11:55N 01°16' E 103°47'0 0.0
2018-Feb-16 11:25N 01°16' E 103°47'0 0.0
2018-Feb-16 10:58N 01°16' E 103°47'0 0.0
2018-Feb-16 10:28N 01°16' E 103°47'0 0.0
2018-Feb-16 09:55N 01°16' E 103°47'0 0.0
2018-Feb-16 09:25N 01°16' E 103°47'0 0.0
2018-Feb-16 08:55N 01°16' E 103°47'0 0.0
2018-Feb-16 08:25N 01°16' E 103°47'0 0.0
2018-Feb-16 07:55N 01°16' E 103°47'0 0.0
2018-Feb-16 07:28N 01°16' E 103°47'0 0.0
2018-Feb-16 06:55N 01°16' E 103°47'0 0.0
2018-Feb-16 06:25N 01°16' E 103°47'0 0.0
2018-Feb-16 05:55N 01°16' E 103°47'0 0.0
2018-Feb-16 05:25N 01°16' E 103°47'0 0.0
2018-Feb-16 04:55N 01°16' E 103°47'0 0.0
2018-Feb-16 04:28N 01°16' E 103°47'0 0.1
2018-Feb-16 03:58N 01°16' E 103°47'0 0.1
2018-Feb-16 03:25N 01°16' E 103°47'0 0.0
2018-Feb-16 02:55N 01°16' E 103°47'0 0.0
2018-Feb-16 02:28N 01°16' E 103°47'0 0.0
2018-Feb-16 01:58N 01°16' E 103°47'0 0.0
2018-Feb-16 01:22N 01°16' E 103°47'0 0.8
2018-Feb-16 01:00N 01°16' E 103°47'2 3.3
2018-Feb-16 00:30N 01°14' E 103°47'0 0.7
2018-Feb-15 23:58N 01°14' E 103°47'0 0.0
2018-Feb-15 23:25N 01°14' E 103°47'0 0.0
2018-Feb-15 22:56N 01°14' E 103°47'0 0.4
2018-Feb-15 22:30N 01°14' E 103°47'2 3.4
2018-Feb-15 22:00N 01°13' E 103°48'4 8.8
2018-Feb-15 21:30N 01°13' E 103°53'3 5.4
2018-Feb-15 21:00N 01°14' E 103°55'2 3.9
2018-Feb-15 20:29N 01°15' E 103°57'4 7.9
2018-Feb-15 19:59N 01°16' E 104°01'22 9.9
2018-Feb-15 17:46N 01°21' E 104°22'  
Track history (hours):
 
Tides and Currents Weather Stations Pressure Air Temp Water Temp Dewpoint Dewpoint Depression Visibility Wind Speed Wind Dir Waves Ship Positions

OOCL Oakland

Last reported at 2018-Feb-18 20:41 UTC. Time now 2018-Feb-19 14:27 UTC.
Position N 01°15' E 104°05'.

Length 280 m; draft 11.6 m.

Type: Ship. MMSI: 372703235.

Date/timePositionNaut miles runAvg speedWind from/ knotsBaromVisibWave heightAir tempDewpointWater temp
2018-Feb-18 20:41N 01°15' E 104°05'317.8
2018-Feb-18 20:30N 01°15' E 104°02'917.3
2018-Feb-18 19:59N 01°12' E 103°53'816.4
2018-Feb-18 19:30N 01°08' E 103°46'1113.9
2018-Feb-18 18:42N 01°03' E 103°36'416.9
2018-Feb-18 18:27N 01°06' E 103°33'814.1
2018-Feb-18 17:54N 01°09' E 103°26'5 0.1
2018-Feb-17 04:24N 01°13' E 103°29'717.8
2018-Feb-17 04:00N 01°12' E 103°35'4 8.1
2018-Feb-17 03:30N 01°12' E 103°40'4 7.9
2018-Feb-17 02:59N 01°15' E 103°43'4 7.6
2018-Feb-17 02:30N 01°16' E 103°46'1 1.5
2018-Feb-17 02:00N 01°16' E 103°47'0 0.5
2018-Feb-17 01:25N 01°16' E 103°47'0 0.0
2018-Feb-17 00:55N 01°16' E 103°47'0 0.0
2018-Feb-17 00:28N 01°16' E 103°47'0 0.0
2018-Feb-16 23:55N 01°16' E 103°47'0 0.0
2018-Feb-16 23:28N 01°16' E 103°47'0 0.0
2018-Feb-16 22:55N 01°16' E 103°47'0 0.0
2018-Feb-16 22:25N 01°16' E 103°47'0 0.0
2018-Feb-16 21:55N 01°16' E 103°47'0 0.0
2018-Feb-16 21:25N 01°16' E 103°47'0 0.0
2018-Feb-16 20:55N 01°16' E 103°47'0 0.0
2018-Feb-16 20:28N 01°16' E 103°47'0 0.0
2018-Feb-16 19:58N 01°16' E 103°47'0 0.0
2018-Feb-16 19:25N 01°16' E 103°47'0 0.0
2018-Feb-16 18:55N 01°16' E 103°47'0 0.0
2018-Feb-16 18:25N 01°16' E 103°47'0 0.0
2018-Feb-16 17:55N 01°16' E 103°47'0 0.0
2018-Feb-16 17:19N 01°16' E 103°47'0 0.0
2018-Feb-16 16:55N 01°16' E 103°47'0 0.0
2018-Feb-16 15:58N 01°16' E 103°47'0 0.0
2018-Feb-16 15:25N 01°16' E 103°47'0 0.0
2018-Feb-16 14:55N 01°16' E 103°47'0 0.1
2018-Feb-16 14:25N 01°16' E 103°47'0 0.1
2018-Feb-16 13:55N 01°16' E 103°47'0 0.0
2018-Feb-16 13:25N 01°16' E 103°47'0 0.0
2018-Feb-16 12:49N 01°16' E 103°47'0 0.0
2018-Feb-16 12:25N 01°16' E 103°47'0 0.0
2018-Feb-16 11:55N 01°16' E 103°47'0 0.0
2018-Feb-16 11:25N 01°16' E 103°47'0 0.0
2018-Feb-16 10:58N 01°16' E 103°47'0 0.0
2018-Feb-16 10:28N 01°16' E 103°47'0 0.0
2018-Feb-16 09:55N 01°16' E 103°47'0 0.0
2018-Feb-16 09:25N 01°16' E 103°47'0 0.0
2018-Feb-16 08:55N 01°16' E 103°47'0 0.0
2018-Feb-16 08:25N 01°16' E 103°47'0 0.0
2018-Feb-16 07:55N 01°16' E 103°47'0 0.0
2018-Feb-16 07:28N 01°16' E 103°47'0 0.0
2018-Feb-16 06:55N 01°16' E 103°47'0 0.0
2018-Feb-16 06:25N 01°16' E 103°47'0 0.0
2018-Feb-16 05:55N 01°16' E 103°47'0 0.0
2018-Feb-16 05:25N 01°16' E 103°47'0 0.0
2018-Feb-16 04:55N 01°16' E 103°47'0 0.0
2018-Feb-16 04:28N 01°16' E 103°47'0 0.1
2018-Feb-16 03:58N 01°16' E 103°47'0 0.1
2018-Feb-16 03:25N 01°16' E 103°47'0 0.0
2018-Feb-16 02:55N 01°16' E 103°47'0 0.0
2018-Feb-16 02:28N 01°16' E 103°47'0 0.0
2018-Feb-16 01:58N 01°16' E 103°47'0 0.0
2018-Feb-16 01:22N 01°16' E 103°47'0 0.8
2018-Feb-16 01:00N 01°16' E 103°47'2 3.3
2018-Feb-16 00:30N 01°14' E 103°47'0 0.7
2018-Feb-15 23:58N 01°14' E 103°47'0 0.0
2018-Feb-15 23:25N 01°14' E 103°47'0 0.0
2018-Feb-15 22:56N 01°14' E 103°47'0 0.4
2018-Feb-15 22:30N 01°14' E 103°47'2 3.4
2018-Feb-15 22:00N 01°13' E 103°48'4 8.8
2018-Feb-15 21:30N 01°13' E 103°53'3 5.4
2018-Feb-15 21:00N 01°14' E 103°55'2 3.9
2018-Feb-15 20:29N 01°15' E 103°57'4 7.9
2018-Feb-15 19:59N 01°16' E 104°01'22 9.9
2018-Feb-15 17:46N 01°21' E 104°22'  

Dump ship's entire track history